createdAt,value
2019-01-24T04:00:32.332Z,95.50
2019-01-24T04:09:20.702Z,95.60
2019-01-24T04:12:08.659Z,95.40
2019-01-24T04:14:56.586Z,95.20
2019-01-24T04:17:44.523Z,95.20
2019-01-24T04:20:32.415Z,95.20
2019-01-24T04:23:20.346Z,95.10
2019-01-24T04:26:08.233Z,95.10
2019-01-24T04:28:56.449Z,94.90
2019-01-24T04:31:44.345Z,94.90
2019-01-24T04:34:32.265Z,94.80
2019-01-24T04:37:12.562Z,94.70
2019-01-24T04:39:50.989Z,94.90
2019-01-24T04:42:39.130Z,95.10
2019-01-24T04:45:27.054Z,95.30
2019-01-24T04:48:14.946Z,95.30
2019-01-24T04:51:02.875Z,95.20
2019-01-24T04:53:50.931Z,95.20
2019-01-24T04:56:38.829Z,95.10
2019-01-24T04:59:26.962Z,95.30
2019-01-24T05:02:05.571Z,95.10
2019-01-24T05:16:40.793Z,95.50
2019-01-24T05:19:28.713Z,95.30
2019-01-24T05:22:16.609Z,95.40
2019-01-24T05:25:05.396Z,95.60
2019-01-24T05:27:53.448Z,95.80
2019-01-24T05:30:41.349Z,95.80
2019-01-24T05:33:29.503Z,95.80
2019-01-24T05:36:17.405Z,95.70
2019-01-24T05:39:06.486Z,95.90
2019-01-24T05:47:41.658Z,95.70
2019-01-24T05:50:29.532Z,95.70
2019-01-24T05:53:17.468Z,95.60
2019-01-24T05:56:05.406Z,95.70
2019-01-24T05:58:53.318Z,95.60
2019-01-24T06:04:40.733Z,95.90
2019-01-24T06:07:28.635Z,96.20
2019-01-24T06:10:16.540Z,95.90
2019-01-24T06:13:04.434Z,96.30
2019-01-24T06:15:52.358Z,96.20
2019-01-24T06:18:40.574Z,96.00
2019-01-24T06:21:28.490Z,95.60
2019-01-24T06:24:16.382Z,95.70
2019-01-24T06:27:04.313Z,95.70
2019-01-24T06:29:52.201Z,95.70
2019-01-24T06:32:40.117Z,95.80
2019-01-24T06:35:28.018Z,95.80
2019-01-24T06:38:15.929Z,96.00
2019-01-24T06:40:55.498Z,95.70
2019-01-24T06:43:43.427Z,95.60
2019-01-24T06:46:31.317Z,95.60
2019-01-24T06:49:19.237Z,95.40
2019-01-24T06:52:07.138Z,95.50
2019-01-24T06:54:55.049Z,95.40
2019-01-24T06:57:42.950Z,95.60
2019-01-24T07:00:31.115Z,95.60
2019-01-24T07:03:19.041Z,95.70
2019-01-24T07:06:07.003Z,95.90
2019-01-24T07:08:54.890Z,95.90
2019-01-24T07:11:42.805Z,95.60
2019-01-24T07:14:30.693Z,95.60
2019-01-24T07:17:18.613Z,95.50
2019-01-24T07:20:06.718Z,95.10
2019-01-24T07:22:54.636Z,95.00
2019-01-24T07:25:42.529Z,95.10
2019-01-24T07:28:30.442Z,95.00
2019-01-24T07:31:18.333Z,95.10
2019-01-24T07:34:06.253Z,95.30
2019-01-24T07:36:54.149Z,95.10
2019-01-24T07:39:42.062Z,95.30
2019-01-24T07:42:20.650Z,95.40
2019-01-24T07:45:10.608Z,95.40
2019-01-24T07:47:58.509Z,95.40
2019-01-24T07:50:46.434Z,95.20
2019-01-24T07:53:34.328Z,95.30
2019-01-24T07:56:22.239Z,95.40
2019-01-24T07:59:10.138Z,95.50
2019-01-24T08:01:58.062Z,95.40
2019-01-24T08:04:46.209Z,95.20
2019-01-24T08:07:34.130Z,95.40
2019-01-24T08:10:22.026Z,95.30
2019-01-24T08:13:09.958Z,95.50
2019-01-24T08:15:57.850Z,95.30
2019-01-24T08:18:45.762Z,95.40
2019-01-24T08:21:33.654Z,95.40
2019-01-24T08:24:21.574Z,95.10
2019-01-24T08:27:09.469Z,95.20
2019-01-24T08:29:57.385Z,95.10
2019-01-24T08:32:45.278Z,95.20
2019-01-24T08:35:33.203Z,95.20
2019-01-24T08:38:21.093Z,95.20
2019-01-24T08:41:09.013Z,95.00
2019-01-24T08:43:49.341Z,94.80
2019-01-24T08:46:27.889Z,94.90
2019-01-24T08:49:15.781Z,94.50
2019-01-24T08:52:03.770Z,94.60
2019-01-24T08:54:51.661Z,94.80
2019-01-24T08:57:39.574Z,94.70
2019-01-24T09:00:27.462Z,95.10
2019-01-24T09:03:15.398Z,94.90
2019-01-24T09:06:03.290Z,94.50
2019-01-24T09:08:51.200Z,94.30
2019-01-24T09:11:39.095Z,94.80
2019-01-24T09:14:27.022Z,94.70
2019-01-24T09:17:14.914Z,94.30
2019-01-24T09:20:02.828Z,94.40
2019-01-24T09:22:55.104Z,93.90
2019-01-24T09:25:40.345Z,93.70
2019-01-24T09:28:28.229Z,93.00
2019-01-24T09:31:16.149Z,92.50
2019-01-24T09:34:04.042Z,91.80
2019-01-24T09:36:51.953Z,91.00
2019-01-24T09:39:39.834Z,90.80
2019-01-24T09:42:27.738Z,89.40
2019-01-24T09:45:17.006Z,88.50
2019-01-24T09:47:57.690Z,88.80
2019-01-24T09:50:38.214Z,87.30
2019-01-24T09:53:16.591Z,87.10
2019-01-24T09:56:04.477Z,86.20
2019-01-24T09:58:52.457Z,85.00
2019-01-24T10:01:40.342Z,82.00
2019-01-24T10:04:28.255Z,82.10
2019-01-24T10:07:16.141Z,82.20
2019-01-24T10:10:04.901Z,79.70
2019-01-24T10:12:53.161Z,77.50
2019-01-24T10:15:41.070Z,76.30
2019-01-24T10:18:28.962Z,74.00
2019-01-24T10:21:16.882Z,72.10
2019-01-24T10:24:04.842Z,70.90
2019-01-24T10:26:52.750Z,73.10
2019-01-24T10:29:40.634Z,76.10
2019-01-24T10:32:28.545Z,75.00
2019-01-24T10:35:16.434Z,76.40
2019-01-24T10:38:04.356Z,75.40
2019-01-24T10:40:52.230Z,74.90
2019-01-24T10:43:40.142Z,71.20
2019-01-24T10:46:28.025Z,70.20
2019-01-24T10:49:06.882Z,68.50
2019-01-24T10:51:54.778Z,67.80
2019-01-24T10:54:42.689Z,69.40
2019-01-24T10:57:30.575Z,68.30
2019-01-24T11:00:19.693Z,66.00
2019-01-24T11:03:08.608Z,64.10
2019-01-24T11:05:56.517Z,61.10
2019-01-24T11:08:44.405Z,58.20
2019-01-24T11:11:32.319Z,56.90
2019-01-24T11:14:20.207Z,54.10
2019-01-24T11:17:08.117Z,52.20
2019-01-24T11:19:56.006Z,52.50
2019-01-24T11:22:43.919Z,52.50
2019-01-24T11:28:59.754Z,53.20
2019-01-24T11:31:47.640Z,53.90
2019-01-24T11:34:35.549Z,53.40
2019-01-24T11:37:23.433Z,53.10
2019-01-24T11:40:12.363Z,53.60
2019-01-24T11:43:00.266Z,55.60
2019-01-24T11:45:48.185Z,56.50
2019-01-24T11:48:36.074Z,57.10
2019-01-24T11:51:16.537Z,57.60
2019-01-24T11:53:57.068Z,59.00
2019-01-24T11:56:35.558Z,61.10
2019-01-24T11:59:23.486Z,62.90
2019-01-24T12:02:11.405Z,62.40
2019-01-24T12:04:59.565Z,64.10
2019-01-24T12:07:47.477Z,64.30
2019-01-24T12:10:35.389Z,63.30
2019-01-24T12:13:23.297Z,65.90
2019-01-24T12:16:11.493Z,65.90
2019-01-24T12:18:59.409Z,66.60
2019-01-24T12:21:47.306Z,65.50
2019-01-24T12:24:35.217Z,65.60
2019-01-24T12:27:23.114Z,66.80
2019-01-24T12:30:12.905Z,68.90
2019-01-24T12:33:00.945Z,68.30
2019-01-24T12:35:48.857Z,70.30
2019-01-24T12:38:36.741Z,71.40
2019-01-24T12:41:24.659Z,71.00
2019-01-24T12:44:12.589Z,72.00
2019-01-24T12:47:00.496Z,72.30
2019-01-24T12:49:48.402Z,73.60
2019-01-24T12:52:27.239Z,74.50
2019-01-24T12:55:15.148Z,75.10
2019-01-24T12:58:03.322Z,72.80
2019-01-24T13:00:51.218Z,72.50
2019-01-24T13:03:39.130Z,73.50
2019-01-24T13:06:27.013Z,74.20
2019-01-24T13:09:14.947Z,73.00
2019-01-24T13:12:02.829Z,73.60
2019-01-24T13:14:50.770Z,73.20
2019-01-24T13:17:38.675Z,73.40
2019-01-24T13:20:26.569Z,73.60
2019-01-24T13:23:14.453Z,74.90
2019-01-24T13:26:02.754Z,74.30
2019-01-24T13:28:50.673Z,73.70
2019-01-24T13:31:38.622Z,74.00
2019-01-24T13:34:26.510Z,73.50
2019-01-24T13:37:14.417Z,72.80
2019-01-24T13:40:02.297Z,73.20
2019-01-24T13:42:50.200Z,72.50
2019-01-24T13:45:38.773Z,72.70
2019-01-24T13:48:26.949Z,73.50
2019-01-24T13:51:14.845Z,74.70
2019-01-24T13:53:53.836Z,74.40
2019-01-24T13:56:41.721Z,73.80
2019-01-24T13:59:29.637Z,74.80
2019-01-24T14:02:17.530Z,75.00
2019-01-24T14:05:05.953Z,76.40
2019-01-24T14:07:54.105Z,76.90
2019-01-24T14:10:22.727Z,75.50
2019-01-24T14:13:10.614Z,76.10
2019-01-24T14:15:58.541Z,76.10
2019-01-24T14:18:46.426Z,75.30
2019-01-24T14:21:34.361Z,75.00
2019-01-24T14:24:22.243Z,74.50
2019-01-24T14:26:50.888Z,75.00
2019-01-24T14:29:38.801Z,74.80
2019-01-24T14:32:26.714Z,76.10
2019-01-24T14:35:14.877Z,75.50
2019-01-24T14:38:02.861Z,75.40
2019-01-24T14:40:50.757Z,76.50
2019-01-24T14:43:38.665Z,75.70
2019-01-24T14:46:26.550Z,77.20
2019-01-24T14:49:14.469Z,78.90
2019-01-24T14:52:02.354Z,78.60
2019-01-24T14:54:50.633Z,78.80
2019-01-24T14:57:38.522Z,78.00
2019-01-24T15:00:27.614Z,77.70
2019-01-24T15:03:15.504Z,78.60
2019-01-24T15:08:57.357Z,79.20
2019-01-24T15:11:45.250Z,78.80
2019-01-24T15:14:13.943Z,78.50
2019-01-24T15:17:01.999Z,78.80
2019-01-24T15:19:49.906Z,80.00
2019-01-24T15:22:37.794Z,80.20
2019-01-24T15:25:25.721Z,79.80
2019-01-24T15:28:13.614Z,79.90
2019-01-24T15:31:01.525Z,79.90
2019-01-24T15:33:49.418Z,79.70
2019-01-24T15:36:37.590Z,80.00
2019-01-24T15:39:25.478Z,80.10
2019-01-24T15:42:13.401Z,80.50
2019-01-24T15:45:01.286Z,80.70
2019-01-24T15:47:49.195Z,81.00
2019-01-24T15:50:37.087Z,81.60
2019-01-24T15:53:24.998Z,82.10
2019-01-24T15:56:03.968Z,83.90
2019-01-24T15:58:51.925Z,84.80
2019-01-24T16:01:39.829Z,85.70
2019-01-24T16:04:27.729Z,86.10
2019-01-24T16:07:15.622Z,86.40
2019-01-24T16:12:57.834Z,87.20
2019-01-24T16:15:46.081Z,87.20
2019-01-24T16:18:33.970Z,87.50
2019-01-24T16:21:22.130Z,87.20
2019-01-24T16:24:10.022Z,87.70
2019-01-24T16:26:57.938Z,87.70
2019-01-24T16:29:45.825Z,87.70
2019-01-24T16:32:33.825Z,88.10
2019-01-24T16:35:21.715Z,88.60
2019-01-24T16:38:09.909Z,88.90
2019-01-24T16:40:59.344Z,89.20
2019-01-24T16:43:48.863Z,89.10
2019-01-24T16:46:36.754Z,89.40
2019-01-24T16:49:24.678Z,89.50
2019-01-24T16:52:12.562Z,90.00
2019-01-24T16:55:00.473Z,90.60
2019-01-24T16:57:39.457Z,90.90
2019-01-24T17:00:46.677Z,91.10
2019-01-24T17:03:34.579Z,91.20
2019-01-24T17:06:22.501Z,91.30
2019-01-24T17:09:11.013Z,91.60
2019-01-24T17:11:58.937Z,91.90
2019-01-24T17:14:46.826Z,91.80
2019-01-24T17:17:34.741Z,91.90
2019-01-24T17:20:23.410Z,91.90
2019-01-24T17:23:11.317Z,92.10
2019-01-24T17:25:59.210Z,92.00
2019-01-24T17:28:47.141Z,92.20
2019-01-24T17:31:35.077Z,92.10
2019-01-24T17:34:23.001Z,92.30
2019-01-24T17:37:10.895Z,92.30
2019-01-24T17:39:58.814Z,92.30
2019-01-24T17:42:46.718Z,92.10
2019-01-24T17:45:34.682Z,92.40
2019-01-24T17:48:22.578Z,92.40
2019-01-24T17:51:10.502Z,92.30
2019-01-24T17:53:58.389Z,92.10
2019-01-24T17:56:46.317Z,92.40
2019-01-24T17:59:25.142Z,92.50
2019-01-24T18:02:13.130Z,92.50
2019-01-24T18:05:01.027Z,92.00
2019-01-24T18:07:48.938Z,91.80
2019-01-24T18:10:36.828Z,91.70
2019-01-24T18:13:24.908Z,91.80
2019-01-24T18:16:12.806Z,91.70
2019-01-24T18:19:00.746Z,91.40
2019-01-24T18:21:48.746Z,91.20
2019-01-24T18:24:36.820Z,91.50
2019-01-24T18:27:24.716Z,91.50
2019-01-24T18:30:31.938Z,91.50
2019-01-24T18:33:19.846Z,91.50
2019-01-24T18:36:07.761Z,91.30
2019-01-24T18:38:55.672Z,91.50
2019-01-24T18:41:43.607Z,91.30
2019-01-24T18:44:31.490Z,91.20
2019-01-24T18:47:19.434Z,91.40
2019-01-24T18:50:09.365Z,91.30
2019-01-24T18:52:57.302Z,91.40
2019-01-24T18:55:45.197Z,91.40
2019-01-24T18:58:33.152Z,91.40
2019-01-24T19:01:12.205Z,91.30
2019-01-24T19:04:00.138Z,91.50
2019-01-24T19:06:48.058Z,91.70
2019-01-24T19:09:35.982Z,91.60
2019-01-24T19:12:23.885Z,91.50
2019-01-24T19:15:12.805Z,91.50
2019-01-24T19:18:00.715Z,91.50
2019-01-24T19:20:48.898Z,91.60
2019-01-24T19:23:36.797Z,91.70
2019-01-24T19:26:24.738Z,91.70
2019-01-24T19:29:12.653Z,91.70
2019-01-24T19:32:00.574Z,91.70
2019-01-24T19:34:48.473Z,91.70
2019-01-24T19:40:30.235Z,91.70
2019-01-24T19:43:18.235Z,91.60
2019-01-24T19:46:06.173Z,91.80
2019-01-24T19:48:54.093Z,91.70
2019-01-24T19:51:41.991Z,91.70
2019-01-24T19:54:30.104Z,91.70
2019-01-24T19:57:17.983Z,91.80
2019-01-24T20:00:07.500Z,91.80
2019-01-24T20:02:46.726Z,91.90
2019-01-24T20:05:34.647Z,92.00
2019-01-24T20:08:22.538Z,92.00
2019-01-24T20:11:10.484Z,92.10
2019-01-24T20:13:58.374Z,92.10
2019-01-24T20:16:46.359Z,92.30
2019-01-24T20:19:34.252Z,92.50
2019-01-24T20:22:22.169Z,92.50
2019-01-24T20:25:11.224Z,92.40
2019-01-24T20:27:59.145Z,92.40
2019-01-24T20:30:47.043Z,92.20
2019-01-24T20:33:34.961Z,92.40
2019-01-24T20:36:22.856Z,92.50
2019-01-24T20:39:10.769Z,92.40
2019-01-24T20:41:58.670Z,92.30
2019-01-24T20:44:46.620Z,92.50
2019-01-24T20:47:34.513Z,92.70
2019-01-24T20:50:22.460Z,92.50
2019-01-24T20:53:10.359Z,92.40
2019-01-24T20:55:58.278Z,92.20
2019-01-24T20:58:46.168Z,92.10
2019-01-24T21:01:34.130Z,92.10
2019-01-24T21:04:15.116Z,92.20
2019-01-24T21:06:53.965Z,92.00
2019-01-24T21:09:41.858Z,91.80
2019-01-24T21:12:29.786Z,91.80
2019-01-24T21:15:17.790Z,91.80
2019-01-24T21:18:05.714Z,91.90
2019-01-24T21:20:53.601Z,91.90
2019-01-24T21:23:41.513Z,92.00
2019-01-24T21:26:29.410Z,92.20
2019-01-24T21:29:17.321Z,92.30
2019-01-24T21:32:05.214Z,92.20
2019-01-24T21:34:53.145Z,92.20
2019-01-24T21:37:41.041Z,92.30
2019-01-24T21:40:28.961Z,92.00
2019-01-24T21:46:24.688Z,92.30
2019-01-24T21:49:13.536Z,92.30
2019-01-24T21:52:01.463Z,92.40
2019-01-24T21:54:49.358Z,92.30
2019-01-24T21:57:37.274Z,92.10
2019-01-24T22:00:44.486Z,92.00
2019-01-24T22:03:32.449Z,92.20
2019-01-24T22:06:12.753Z,92.50
2019-01-24T22:08:53.214Z,92.90
2019-01-24T22:11:33.534Z,92.90
2019-01-24T22:14:13.914Z,93.00
2019-01-24T22:16:52.454Z,93.00
2019-01-24T22:19:40.364Z,93.10
2019-01-24T22:22:28.257Z,93.10
2019-01-24T22:24:56.961Z,93.20
2019-01-24T22:27:44.859Z,93.40
2019-01-24T22:33:31.289Z,94.00
2019-01-24T22:36:19.205Z,94.30
2019-01-24T22:39:08.330Z,94.50
2019-01-24T22:41:56.255Z,94.40
2019-01-24T22:44:44.155Z,94.20
2019-01-24T22:47:32.337Z,94.20
2019-01-24T22:50:20.230Z,94.10
2019-01-24T22:53:08.146Z,94.00
2019-01-24T22:55:56.069Z,93.90
2019-01-24T22:58:43.994Z,93.80
